createdAt,value
2023-08-15T07:00:18.651Z,1008.83
2023-08-15T07:01:19.757Z,1008.78
2023-08-15T07:02:19.771Z,1008.83
2023-08-15T07:03:19.978Z,1008.90
2023-08-15T07:04:19.924Z,1008.87
2023-08-15T07:05:20.031Z,1008.84
2023-08-15T07:06:20.100Z,1008.77
2023-08-15T07:07:20.534Z,1008.84
2023-08-15T07:08:20.308Z,1008.81
2023-08-15T07:09:20.361Z,1008.85
2023-08-15T07:10:20.483Z,1008.78
2023-08-15T07:11:20.548Z,1008.81
2023-08-15T07:12:20.815Z,1008.80
2023-08-15T07:13:20.709Z,1008.87
2023-08-15T07:14:20.779Z,1008.85
2023-08-15T07:15:20.862Z,1008.83
2023-08-15T07:16:20.973Z,1008.79
2023-08-15T07:17:21.030Z,1008.77
2023-08-15T07:18:21.112Z,1008.83
2023-08-15T07:19:21.335Z,1008.80
2023-08-15T07:20:21.334Z,1008.81
2023-08-15T07:21:22.886Z,1008.84
2023-08-15T07:22:22.336Z,1008.82
2023-08-15T07:23:21.620Z,1008.71
2023-08-15T07:24:21.797Z,1008.74
2023-08-15T07:25:21.692Z,1008.74
2023-08-15T07:26:21.814Z,1008.71
2023-08-15T07:27:21.937Z,1008.68
2023-08-15T07:28:21.938Z,1008.67
2023-08-15T07:29:22.049Z,1008.69
2023-08-15T07:30:22.094Z,1008.72
2023-08-15T07:31:22.237Z,1008.78
2023-08-15T07:32:22.434Z,1008.72
2023-08-15T07:33:22.335Z,1008.76
2023-08-15T07:34:22.390Z,1008.86
2023-08-15T07:35:22.502Z,1008.83
2023-08-15T07:36:22.562Z,1008.79
2023-08-15T07:37:22.699Z,1008.85
2023-08-15T07:38:22.716Z,1008.87
2023-08-15T07:39:22.790Z,1008.85
2023-08-15T07:40:22.889Z,1008.90
2023-08-15T07:41:22.985Z,1008.86
2023-08-15T07:42:23.439Z,1008.87
2023-08-15T07:43:23.188Z,1008.86
2023-08-15T07:44:23.248Z,1008.89
2023-08-15T07:45:23.333Z,1008.91
2023-08-15T07:46:23.562Z,1008.93
2023-08-15T07:47:23.551Z,1008.99
2023-08-15T07:48:23.640Z,1009.01
2023-08-15T07:49:23.749Z,1009.04
2023-08-15T07:50:23.820Z,1009.03
2023-08-15T07:51:23.911Z,1008.98
2023-08-15T07:52:24.122Z,1008.99
2023-08-15T07:53:24.018Z,1009.06
2023-08-15T07:54:24.098Z,1009.08
2023-08-15T07:55:24.184Z,1009.10
2023-08-15T07:56:24.263Z,1009.12
2023-08-15T07:57:24.348Z,1009.24
2023-08-15T07:58:24.806Z,1009.22
2023-08-15T07:59:25.405Z,1009.11
2023-08-15T08:00:24.774Z,1009.23
2023-08-15T08:01:24.716Z,1009.22
2023-08-15T08:02:25.471Z,1009.26
2023-08-15T08:03:24.841Z,1009.25
2023-08-15T08:04:24.905Z,1009.30
2023-08-15T08:05:25.009Z,1009.32
2023-08-15T08:06:38.840Z,1009.30
2023-08-15T08:07:25.243Z,1009.33
2023-08-15T08:08:25.241Z,1009.29
2023-08-15T08:09:25.318Z,1009.29
2023-08-15T08:10:25.371Z,1009.31
2023-08-15T08:11:25.506Z,1009.37
2023-08-15T08:12:25.578Z,1009.39
2023-08-15T08:13:25.698Z,1009.37
2023-08-15T08:14:25.699Z,1009.38
2023-08-15T08:15:25.792Z,1009.36
2023-08-15T08:16:25.923Z,1009.35
2023-08-15T08:17:26.003Z,1009.42
2023-08-15T08:18:26.050Z,1009.38
2023-08-15T08:19:26.109Z,1009.42
2023-08-15T08:20:26.182Z,1009.41
2023-08-15T08:21:26.255Z,1009.46
2023-08-15T08:22:26.339Z,1009.50
2023-08-15T08:23:26.452Z,1009.54
2023-08-15T08:24:26.556Z,1009.43
2023-08-15T08:25:26.646Z,1009.49
2023-08-15T08:26:26.694Z,1009.45
2023-08-15T08:27:26.760Z,1009.42
2023-08-15T08:28:26.914Z,1009.42
2023-08-15T08:29:26.958Z,1009.45
2023-08-15T08:30:29.314Z,1009.48
2023-08-15T08:31:27.155Z,1009.52
2023-08-15T08:32:27.220Z,1009.52
2023-08-15T08:33:27.330Z,1009.61
2023-08-15T08:34:27.454Z,1009.60
2023-08-15T08:35:27.472Z,1009.59
2023-08-15T08:36:27.663Z,1009.58
2023-08-15T08:37:27.754Z,1009.61
2023-08-15T08:38:28.564Z,1009.61
2023-08-15T08:39:32.294Z,1009.65
2023-08-15T08:40:27.924Z,1009.72
2023-08-15T08:41:27.981Z,1009.76
2023-08-15T08:42:28.352Z,1009.72
2023-08-15T08:43:28.196Z,1009.73
2023-08-15T08:44:28.274Z,1009.72
2023-08-15T08:45:28.426Z,1009.69
2023-08-15T08:46:28.426Z,1009.73
2023-08-15T08:47:28.510Z,1009.73
2023-08-15T08:48:28.577Z,1009.75
2023-08-15T08:49:28.718Z,1009.72
2023-08-15T08:50:28.741Z,1009.79
2023-08-15T08:51:28.831Z,1009.72
2023-08-15T08:52:28.871Z,1009.67
2023-08-15T08:53:29.000Z,1009.77
2023-08-15T08:54:46.812Z,1009.78
2023-08-15T08:55:30.075Z,1009.78
2023-08-15T08:56:29.222Z,1009.81
2023-08-15T08:57:29.306Z,1009.79
2023-08-15T08:58:29.410Z,1009.81
2023-08-15T08:59:29.505Z,1009.79
2023-08-15T09:00:29.610Z,1009.74
2023-08-15T09:01:29.702Z,1009.77
2023-08-15T09:02:29.786Z,1009.82
2023-08-15T09:03:29.929Z,1009.77
2023-08-15T09:04:29.909Z,1009.74
2023-08-15T09:05:30.062Z,1009.70
2023-08-15T09:06:30.071Z,1009.65
2023-08-15T09:07:30.234Z,1009.66
2023-08-15T09:08:30.246Z,1009.69
2023-08-15T09:09:30.346Z,1009.67
2023-08-15T09:10:30.475Z,1009.70
2023-08-15T09:11:30.474Z,1009.72
2023-08-15T09:12:30.585Z,1009.70
2023-08-15T09:13:30.623Z,1009.71
2023-08-15T09:14:30.708Z,1009.77
2023-08-15T09:15:33.781Z,1009.74
2023-08-15T09:16:30.880Z,1009.76
2023-08-15T09:17:30.984Z,1009.75
2023-08-15T09:18:31.033Z,1009.73
2023-08-15T09:19:31.136Z,1009.72
2023-08-15T09:20:31.277Z,1009.74
2023-08-15T09:21:31.304Z,1009.74
2023-08-15T09:22:31.364Z,1009.78
2023-08-15T09:23:31.433Z,1009.79
2023-08-15T09:24:31.515Z,1009.81
2023-08-15T09:25:31.642Z,1009.83
2023-08-15T09:26:31.672Z,1009.82
2023-08-15T09:27:31.724Z,1009.82
2023-08-15T09:28:31.808Z,1009.83
2023-08-15T09:29:31.871Z,1009.85
2023-08-15T09:30:31.962Z,1009.83
2023-08-15T09:31:32.062Z,1009.84
2023-08-15T09:32:32.116Z,1009.84
2023-08-15T09:33:32.218Z,1009.89
2023-08-15T09:34:32.238Z,1009.84
2023-08-15T09:35:32.491Z,1009.89
2023-08-15T09:36:36.109Z,1009.86
2023-08-15T09:37:32.536Z,1009.85
2023-08-15T09:38:32.721Z,1009.91
2023-08-15T09:39:32.719Z,1009.92
2023-08-15T09:40:33.124Z,1009.91
2023-08-15T09:41:32.860Z,1009.89
2023-08-15T09:42:32.978Z,1009.87
2023-08-15T09:43:33.048Z,1009.87
2023-08-15T09:44:33.115Z,1009.89
2023-08-15T09:45:33.220Z,1009.88
2023-08-15T09:46:33.305Z,1009.90
2023-08-15T09:47:33.410Z,1009.89
2023-08-15T09:48:33.443Z,1009.89
2023-08-15T09:49:33.585Z,1009.86
2023-08-15T09:50:33.718Z,1009.86
2023-08-15T09:51:33.727Z,1009.94
2023-08-15T09:52:33.805Z,1009.90
2023-08-15T09:53:33.873Z,1009.93
2023-08-15T09:54:33.951Z,1009.85
2023-08-15T09:55:34.042Z,1009.83
2023-08-15T09:56:34.227Z,1009.89
2023-08-15T09:57:34.205Z,1009.98
2023-08-15T09:58:34.276Z,1009.93
2023-08-15T09:59:34.360Z,1009.91
2023-08-15T10:00:34.468Z,1009.92
2023-08-15T10:01:34.547Z,1009.90
2023-08-15T10:02:34.654Z,1009.96
2023-08-15T10:03:34.724Z,1010.19
2023-08-15T10:04:34.762Z,1009.91
2023-08-15T10:05:35.085Z,1010.06
2023-08-15T10:06:34.950Z,1010.19
2023-08-15T10:07:35.002Z,1010.00
2023-08-15T10:08:35.105Z,1009.94
2023-08-15T10:09:35.141Z,1010.09
2023-08-15T10:10:35.229Z,1010.02
2023-08-15T10:11:35.311Z,1009.98
2023-08-15T10:12:35.397Z,1010.11
2023-08-15T10:13:35.480Z,1010.04
2023-08-15T10:14:35.540Z,1010.01
2023-08-15T10:15:35.621Z,1010.03
2023-08-15T10:16:35.836Z,1010.04
2023-08-15T10:17:35.956Z,1010.13
2023-08-15T10:18:35.911Z,1010.09
2023-08-15T10:19:35.930Z,1010.03
2023-08-15T10:20:36.004Z,1009.93
2023-08-15T10:21:36.089Z,1009.84
2023-08-15T10:22:36.165Z,1009.69
2023-08-15T10:23:36.257Z,1009.70
2023-08-15T10:24:36.352Z,1009.66
2023-08-15T10:25:36.464Z,1009.67
2023-08-15T10:26:36.501Z,1009.70
2023-08-15T10:27:36.602Z,1009.68
2023-08-15T10:28:36.702Z,1009.57
2023-08-15T10:29:36.762Z,1009.67
2023-08-15T10:30:37.027Z,1009.69
2023-08-15T10:31:36.936Z,1009.53
2023-08-15T10:32:37.061Z,1009.52
2023-08-15T10:33:37.099Z,1009.52
2023-08-15T10:34:37.152Z,1009.52
2023-08-15T10:35:37.278Z,1009.50
2023-08-15T10:36:37.311Z,1009.49
2023-08-15T10:37:37.428Z,1009.55
2023-08-15T10:38:37.469Z,1009.50
2023-08-15T10:39:37.564Z,1009.54
2023-08-15T10:40:37.605Z,1009.53
2023-08-15T10:41:37.666Z,1009.54
2023-08-15T10:42:37.800Z,1009.45
2023-08-15T10:43:37.851Z,1009.47
2023-08-15T10:44:37.956Z,1009.45
2023-08-15T10:45:37.994Z,1009.44
2023-08-15T10:46:38.126Z,1009.44
2023-08-15T10:47:38.190Z,1009.46
2023-08-15T10:48:41.080Z,1009.40
2023-08-15T10:49:38.270Z,1009.51
2023-08-15T10:50:38.362Z,1009.48
2023-08-15T10:51:38.450Z,1009.44
2023-08-15T10:52:38.557Z,1009.42
2023-08-15T10:53:38.617Z,1009.41
2023-08-15T10:54:38.735Z,1009.37
2023-08-15T10:55:38.786Z,1009.48
2023-08-15T10:56:38.871Z,1009.54
2023-08-15T10:57:38.911Z,1009.53
2023-08-15T10:58:41.298Z,1009.50
2023-08-15T10:59:39.121Z,1009.46
2023-08-15T11:00:39.200Z,1009.35
2023-08-15T11:01:39.479Z,1009.42
2023-08-15T11:02:39.405Z,1009.38
2023-08-15T11:03:39.810Z,1009.69
2023-08-15T11:04:40.711Z,1009.64
2023-08-15T11:05:39.631Z,1009.60
2023-08-15T11:06:39.671Z,1009.50
2023-08-15T11:07:39.752Z,1009.48
2023-08-15T11:08:39.913Z,1009.52
2023-08-15T11:09:39.930Z,1009.64
2023-08-15T11:10:40.470Z,1009.53
2023-08-15T11:11:40.259Z,1009.55
2023-08-15T11:12:40.198Z,1009.56
2023-08-15T11:13:40.354Z,1009.55
2023-08-15T11:14:40.395Z,1009.52
2023-08-15T11:15:41.144Z,1009.48
2023-08-15T11:16:40.562Z,1009.57
2023-08-15T11:17:40.626Z,1009.85
2023-08-15T11:18:40.684Z,1010.10
2023-08-15T11:19:40.786Z,1009.93
2023-08-15T11:20:40.819Z,1010.03
2023-08-15T11:21:40.893Z,1010.03
2023-08-15T11:22:41.070Z,1010.09
2023-08-15T11:23:41.050Z,1010.24
2023-08-15T11:24:41.220Z,1010.26
2023-08-15T11:25:41.263Z,1010.30
2023-08-15T11:26:41.377Z,1010.32
2023-08-15T11:27:41.396Z,1010.35
2023-08-15T11:28:41.462Z,1010.13
2023-08-15T11:29:41.604Z,1010.26
2023-08-15T11:30:41.626Z,1010.28
2023-08-15T11:31:42.868Z,1010.34
2023-08-15T11:32:41.895Z,1010.27
2023-08-15T11:33:41.871Z,1010.26
2023-08-15T11:34:41.951Z,1010.24
2023-08-15T11:35:42.038Z,1010.32
2023-08-15T11:36:42.124Z,1010.25
2023-08-15T11:37:42.191Z,1010.31
2023-08-15T11:38:42.298Z,1010.35
2023-08-15T11:39:42.369Z,1010.48
2023-08-15T11:40:42.435Z,1010.51
2023-08-15T11:41:42.569Z,1010.53
2023-08-15T11:42:42.613Z,1010.60
2023-08-15T11:43:42.690Z,1010.56
2023-08-15T11:44:42.774Z,1010.65
2023-08-15T11:45:42.870Z,1010.69
2023-08-15T11:47:43.113Z,1010.76
2023-08-15T11:48:43.086Z,1010.77
2023-08-15T11:49:46.476Z,1010.72
2023-08-15T11:50:44.954Z,1010.78
2023-08-15T11:51:43.312Z,1010.70
2023-08-15T11:52:43.405Z,1010.77
2023-08-15T11:53:43.483Z,1010.78
2023-08-15T11:54:43.629Z,1010.77
2023-08-15T11:55:43.715Z,1010.79
2023-08-15T11:56:43.727Z,1010.80
2023-08-15T11:57:43.832Z,1010.80
2023-08-15T11:58:44.715Z,1010.74
2023-08-15T11:59:43.963Z,1010.83
2023-08-15T12:00:44.074Z,1010.73
2023-08-15T12:01:44.186Z,1010.72
2023-08-15T12:02:44.232Z,1010.67
2023-08-15T12:03:44.300Z,1010.60
2023-08-15T12:04:44.346Z,1010.66
2023-08-15T12:05:44.437Z,1010.65
2023-08-15T12:06:44.528Z,1010.67
2023-08-15T12:07:44.592Z,1010.65
2023-08-15T12:08:46.272Z,1010.73
2023-08-15T12:09:44.745Z,1010.70
2023-08-15T12:10:44.849Z,1010.67
2023-08-15T12:11:44.910Z,1010.65
2023-08-15T12:12:44.965Z,1010.64
2023-08-15T12:13:45.030Z,1010.62
2023-08-15T12:14:50.837Z,1010.70
2023-08-15T12:15:45.282Z,1010.68
2023-08-15T12:16:45.247Z,1010.73
2023-08-15T12:17:45.331Z,1010.77
2023-08-15T12:18:45.404Z,1010.83
2023-08-15T12:19:45.462Z,1010.83
2023-08-15T12:20:45.585Z,1010.78
2023-08-15T12:21:45.624Z,1010.88
2023-08-15T12:22:46.019Z,1010.88
2023-08-15T12:23:45.790Z,1010.86
2023-08-15T12:24:45.877Z,1010.88
2023-08-15T12:25:45.937Z,1010.92
2023-08-15T12:26:46.047Z,1010.89
2023-08-15T12:27:46.097Z,1010.83
2023-08-15T12:28:46.166Z,1010.89
2023-08-15T12:30:13.147Z,1010.84
2023-08-15T12:30:46.405Z,1010.89
2023-08-15T12:31:46.465Z,1010.82
2023-08-15T12:32:47.135Z,1010.82
2023-08-15T12:33:47.906Z,1010.85
2023-08-15T12:34:46.622Z,1010.80
2023-08-15T12:35:48.361Z,1010.68
2023-08-15T12:36:46.787Z,1010.69
2023-08-15T12:37:46.857Z,1010.63
2023-08-15T12:38:46.942Z,1010.60
2023-08-15T12:39:47.017Z,1010.58
2023-08-15T12:40:47.125Z,1010.59
2023-08-15T12:41:47.186Z,1010.59
2023-08-15T12:42:47.306Z,1010.63
2023-08-15T12:43:47.354Z,1010.55
2023-08-15T12:44:47.604Z,1010.60
2023-08-15T12:45:47.565Z,1010.56
2023-08-15T12:46:48.009Z,1010.56
2023-08-15T12:47:47.743Z,1010.55
2023-08-15T12:48:47.826Z,1010.50
2023-08-15T12:49:47.880Z,1010.52
2023-08-15T12:50:47.965Z,1010.54
2023-08-15T12:51:48.133Z,1010.47
2023-08-15T12:52:48.104Z,1010.54
2023-08-15T12:53:48.224Z,1010.50
2023-08-15T12:54:48.262Z,1010.54
2023-08-15T12:55:48.334Z,1010.50
2023-08-15T12:56:48.452Z,1010.51
2023-08-15T12:57:48.484Z,1010.47
2023-08-15T12:58:48.581Z,1010.49
2023-08-15T12:59:48.671Z,1010.49
2023-08-15T13:00:48.817Z,1010.52
2023-08-15T13:01:48.867Z,1010.54
2023-08-15T13:02:48.932Z,1010.49
2023-08-15T13:03:49.025Z,1010.52
2023-08-15T13:04:49.102Z,1010.52
2023-08-15T13:05:49.204Z,1010.56
2023-08-15T13:06:49.251Z,1010.53
2023-08-15T13:07:49.369Z,1010.54
2023-08-15T13:08:49.413Z,1010.51
2023-08-15T13:09:49.501Z,1010.54
2023-08-15T13:10:49.565Z,1010.51
2023-08-15T13:11:49.679Z,1010.50
2023-08-15T13:12:49.740Z,1010.49
2023-08-15T13:13:49.826Z,1010.47
2023-08-15T13:14:49.992Z,1010.46
2023-08-15T13:15:50.007Z,1010.42
2023-08-15T13:16:50.141Z,1010.35
2023-08-15T13:17:50.204Z,1010.36
2023-08-15T13:18:50.315Z,1010.36
2023-08-15T13:19:50.370Z,1010.34
2023-08-15T13:20:50.447Z,1010.33
2023-08-15T13:21:50.747Z,1010.30
2023-08-15T13:22:50.626Z,1010.28
2023-08-15T13:23:51.212Z,1010.25
2023-08-15T13:24:50.788Z,1010.25
2023-08-15T13:25:50.862Z,1010.22
2023-08-15T13:26:50.966Z,1010.16
2023-08-15T13:27:51.008Z,1010.18
2023-08-15T13:28:51.149Z,1010.20
2023-08-15T13:29:51.177Z,1010.23
2023-08-15T13:30:51.263Z,1010.35
2023-08-15T13:31:51.361Z,1010.45
2023-08-15T13:32:51.413Z,1010.41
2023-08-15T13:33:51.473Z,1010.48
2023-08-15T13:34:51.571Z,1010.54
2023-08-15T13:35:52.201Z,1010.36
2023-08-15T13:36:51.740Z,1010.47
2023-08-15T13:37:51.848Z,1010.48
2023-08-15T13:38:51.956Z,1010.57
2023-08-15T13:39:51.951Z,1010.50
2023-08-15T13:40:52.032Z,1010.51
2023-08-15T13:41:52.125Z,1010.56
2023-08-15T13:42:53.902Z,1010.60
2023-08-15T13:43:52.287Z,1010.62
2023-08-15T13:44:52.364Z,1010.63
2023-08-15T13:45:52.444Z,1010.71
2023-08-15T13:46:52.586Z,1010.70
2023-08-15T13:47:52.686Z,1010.71
2023-08-15T13:48:52.682Z,1010.69
2023-08-15T13:49:52.837Z,1010.68
2023-08-15T13:50:52.861Z,1010.76
2023-08-15T13:51:52.972Z,1010.72
2023-08-15T13:52:53.039Z,1010.65
2023-08-15T13:53:53.110Z,1010.69
2023-08-15T13:54:53.216Z,1010.74
2023-08-15T13:55:53.250Z,1010.73
2023-08-15T13:56:55.601Z,1010.75
2023-08-15T13:57:53.763Z,1010.76
2023-08-15T13:58:53.470Z,1010.77
2023-08-15T13:59:53.552Z,1010.76
2023-08-15T14:00:53.760Z,1010.77
2023-08-15T14:01:53.728Z,1010.80
2023-08-15T14:02:53.913Z,1010.75
2023-08-15T14:03:53.893Z,1010.81
2023-08-15T14:04:54.013Z,1010.76
2023-08-15T14:05:54.074Z,1010.77
2023-08-15T14:06:54.114Z,1010.84
2023-08-15T14:07:54.192Z,1010.82
2023-08-15T14:08:54.261Z,1010.80
2023-08-15T14:09:56.533Z,1010.78
2023-08-15T14:10:54.429Z,1010.76
2023-08-15T14:11:54.541Z,1010.80
2023-08-15T14:12:54.645Z,1010.79
2023-08-15T14:13:54.672Z,1010.83
2023-08-15T14:14:54.797Z,1010.85
2023-08-15T14:15:54.842Z,1010.78
2023-08-15T14:16:55.063Z,1010.75
2023-08-15T14:17:55.027Z,1010.79
2023-08-15T14:18:55.073Z,1010.72
2023-08-15T14:19:55.130Z,1010.76
2023-08-15T14:20:55.199Z,1010.82
2023-08-15T14:21:55.275Z,1010.79
2023-08-15T14:22:55.357Z,1010.76
2023-08-15T14:23:55.462Z,1010.77
2023-08-15T14:24:55.602Z,1010.78
2023-08-15T14:25:55.655Z,1010.77
2023-08-15T14:26:56.651Z,1010.79
2023-08-15T14:27:55.790Z,1010.80
2023-08-15T14:28:55.877Z,1010.82
2023-08-15T14:29:56.011Z,1010.84
2023-08-15T14:30:56.069Z,1010.85
2023-08-15T14:31:56.123Z,1010.94
2023-08-15T14:32:56.311Z,1010.91
2023-08-15T14:33:56.292Z,1010.92
2023-08-15T14:34:56.478Z,1010.87
2023-08-15T14:35:56.492Z,1010.85
2023-08-15T14:36:56.563Z,1010.84
2023-08-15T14:37:56.648Z,1010.86
2023-08-15T14:38:56.720Z,1010.93
2023-08-15T14:39:56.807Z,1010.32
2023-08-15T14:40:56.860Z,1010.31
2023-08-15T14:41:56.984Z,1010.28
2023-08-15T14:42:57.057Z,1010.29
2023-08-15T14:43:57.081Z,1010.32
2023-08-15T14:44:57.152Z,1010.29
2023-08-15T14:45:57.246Z,1010.27
2023-08-15T14:46:57.401Z,1010.30
2023-08-15T14:47:57.420Z,1010.28
2023-08-15T14:48:59.470Z,1010.28
2023-08-15T14:49:57.603Z,1010.27
2023-08-15T14:50:57.623Z,1010.27
2023-08-15T14:51:57.768Z,1010.27
2023-08-15T14:52:57.803Z,1010.23
2023-08-15T14:53:57.920Z,1010.20
2023-08-15T14:54:57.998Z,1010.21
2023-08-15T14:55:58.154Z,1010.20
2023-08-15T14:56:58.166Z,1010.25
2023-08-15T14:57:58.238Z,1010.20
2023-08-15T14:58:58.315Z,1010.22
2023-08-15T14:59:58.379Z,1010.18
2023-08-15T15:00:58.476Z,1010.21
2023-08-15T15:01:58.608Z,1010.19
2023-08-15T15:02:58.698Z,1010.12
2023-08-15T15:03:58.728Z,1010.13
2023-08-15T15:04:58.770Z,1010.15
2023-08-15T15:05:58.843Z,1010.13
2023-08-15T15:06:58.933Z,1010.15
2023-08-15T15:07:59.028Z,1010.11
2023-08-15T15:08:59.066Z,1010.12
2023-08-15T15:09:59.181Z,1010.09
2023-08-15T15:10:59.243Z,1010.09
2023-08-15T15:11:59.350Z,1010.07
2023-08-15T15:12:59.421Z,1010.09
2023-08-15T15:13:59.485Z,1010.10
2023-08-15T15:14:59.573Z,1010.17
2023-08-15T15:15:59.686Z,1010.17
2023-08-15T15:16:59.739Z,1010.15
2023-08-15T15:17:59.866Z,1010.14
2023-08-15T15:18:59.899Z,1010.14
2023-08-15T15:19:59.988Z,1010.16
2023-08-15T15:21:01.904Z,1010.13
2023-08-15T15:22:00.144Z,1010.12
2023-08-15T15:23:00.210Z,1010.11
2023-08-15T15:24:00.288Z,1010.13
2023-08-15T15:25:00.355Z,1010.10
2023-08-15T15:26:00.417Z,1010.14
2023-08-15T15:27:00.502Z,1010.13
2023-08-15T15:28:01.413Z,1010.13
2023-08-15T15:29:00.637Z,1010.16
2023-08-15T15:30:00.752Z,1010.13
2023-08-15T15:31:00.842Z,1010.13
2023-08-15T15:32:00.937Z,1010.11
2023-08-15T15:33:01.006Z,1010.08
2023-08-15T15:34:01.042Z,1010.09
2023-08-15T15:35:01.272Z,1010.07
2023-08-15T15:36:01.231Z,1010.08
2023-08-15T15:37:01.341Z,1010.07
2023-08-15T15:38:01.415Z,1010.11
2023-08-15T15:39:01.481Z,1010.12
2023-08-15T15:40:01.637Z,1010.06
2023-08-15T15:41:01.639Z,1010.08
2023-08-15T15:42:01.783Z,1010.07
2023-08-15T15:43:01.800Z,1010.08
2023-08-15T15:44:01.915Z,1010.08
2023-08-15T15:45:02.059Z,1010.09
2023-08-15T15:46:02.108Z,1010.12
2023-08-15T15:47:02.220Z,1010.09
2023-08-15T15:48:02.260Z,1010.10
2023-08-15T15:49:02.303Z,1010.10
2023-08-15T15:50:02.414Z,1010.08
2023-08-15T15:51:02.496Z,1010.07
2023-08-15T15:52:02.558Z,1010.12
2023-08-15T15:53:02.635Z,1010.10
2023-08-15T15:54:02.736Z,1010.13
2023-08-15T15:55:02.833Z,1010.10
2023-08-15T15:56:02.919Z,1010.10
2023-08-15T15:57:02.984Z,1010.15
2023-08-15T15:58:03.039Z,1010.17
2023-08-15T15:59:03.148Z,1010.16
2023-08-15T16:00:03.270Z,1010.17
2023-08-15T16:01:03.450Z,1010.22
2023-08-15T16:02:03.395Z,1010.16
2023-08-15T16:03:03.519Z,1010.19
2023-08-15T16:04:03.557Z,1010.18
2023-08-15T16:05:03.615Z,1010.17
2023-08-15T16:06:03.699Z,1010.23
2023-08-15T16:07:03.752Z,1010.24
2023-08-15T16:08:03.816Z,1010.25
2023-08-15T16:09:03.960Z,1010.24
2023-08-15T16:10:03.980Z,1010.26
2023-08-15T16:11:04.107Z,1010.23
2023-08-15T16:12:04.173Z,1010.23
2023-08-15T16:13:04.233Z,1010.24
2023-08-15T16:14:04.340Z,1010.25
2023-08-15T16:15:04.419Z,1010.34
2023-08-15T16:16:04.552Z,1010.27
2023-08-15T16:17:04.584Z,1010.30
2023-08-15T16:18:04.707Z,1010.34
2023-08-15T16:19:04.724Z,1010.34
2023-08-15T16:20:04.790Z,1010.32
2023-08-15T16:21:05.008Z,1010.36
2023-08-15T16:22:04.982Z,1010.42
2023-08-15T16:23:05.069Z,1010.41
2023-08-15T16:24:05.152Z,1010.40
2023-08-15T16:25:05.227Z,1010.40
2023-08-15T16:26:05.318Z,1010.41
2023-08-15T16:27:05.390Z,1010.42
2023-08-15T16:28:05.445Z,1010.39
2023-08-15T16:29:05.503Z,1010.39
2023-08-15T16:30:16.380Z,1010.37
2023-08-15T16:31:05.682Z,1010.39
2023-08-15T16:32:05.765Z,1010.39
2023-08-15T16:33:05.926Z,1010.41
2023-08-15T16:34:05.915Z,1010.44
2023-08-15T16:35:05.991Z,1010.42
2023-08-15T16:36:06.091Z,1010.43
2023-08-15T16:37:06.242Z,1010.41
2023-08-15T16:38:06.233Z,1010.43
2023-08-15T16:39:06.343Z,1010.46
2023-08-15T16:40:06.423Z,1010.48
2023-08-15T16:41:06.524Z,1010.46
2023-08-15T16:42:06.629Z,1010.46
2023-08-15T16:43:06.716Z,1010.48
2023-08-15T16:44:06.811Z,1010.59
2023-08-15T16:45:06.884Z,1010.54
2023-08-15T16:46:07.013Z,1010.56
2023-08-15T16:47:07.123Z,1010.59
2023-08-15T16:48:07.172Z,1010.54
2023-08-15T16:49:07.220Z,1010.55
2023-08-15T16:50:07.309Z,1010.57
2023-08-15T16:51:07.402Z,1010.58
2023-08-15T16:52:07.509Z,1010.62
2023-08-15T16:53:07.574Z,1010.63
2023-08-15T16:54:07.687Z,1010.64
2023-08-15T16:55:07.811Z,1010.58
2023-08-15T16:56:07.823Z,1010.64
2023-08-15T16:57:07.892Z,1010.65
2023-08-15T16:58:08.018Z,1010.66
2023-08-15T16:59:08.102Z,1010.71
2023-08-15T17:00:08.193Z,1010.70
2023-08-15T17:01:08.310Z,1010.72
2023-08-15T17:02:08.331Z,1010.77
2023-08-15T17:03:08.450Z,1010.78
2023-08-15T17:04:08.584Z,1010.74
2023-08-15T17:05:08.554Z,1010.76
2023-08-15T17:06:08.601Z,1010.77
2023-08-15T17:07:08.712Z,1010.79
2023-08-15T17:08:08.759Z,1010.81
2023-08-15T17:09:08.908Z,1010.82
2023-08-15T17:10:09.004Z,1010.79
2023-08-15T17:11:09.072Z,1010.77
2023-08-15T17:12:09.122Z,1010.77
2023-08-15T17:13:09.183Z,1010.82
2023-08-15T17:14:09.264Z,1010.80
2023-08-15T17:15:09.375Z,1010.84
2023-08-15T17:16:09.441Z,1010.84
2023-08-15T17:17:09.494Z,1010.88
2023-08-15T17:18:09.692Z,1010.92
2023-08-15T17:19:09.694Z,1010.94
2023-08-15T17:20:09.762Z,1010.96
2023-08-15T17:21:09.864Z,1010.97
2023-08-15T17:22:09.922Z,1010.90
2023-08-15T17:23:10.059Z,1010.92
2023-08-15T17:24:10.145Z,1010.90
2023-08-15T17:25:10.190Z,1010.91
2023-08-15T17:26:10.294Z,1010.92
2023-08-15T17:27:10.345Z,1010.94
2023-08-15T17:28:10.434Z,1010.91
2023-08-15T17:29:10.539Z,1010.93
2023-08-15T17:30:10.622Z,1010.96
2023-08-15T17:31:10.789Z,1010.95
2023-08-15T17:32:11.376Z,1010.94
2023-08-15T17:33:10.930Z,1010.94
2023-08-15T17:34:11.016Z,1011.00
2023-08-15T17:35:11.021Z,1011.04
2023-08-15T17:36:11.559Z,1010.98
2023-08-15T17:37:11.198Z,1010.96
2023-08-15T17:38:11.372Z,1010.92
2023-08-15T17:39:11.515Z,1010.96
2023-08-15T17:40:11.434Z,1011.00
2023-08-15T17:41:11.555Z,1011.02
2023-08-15T17:42:11.622Z,1010.98
2023-08-15T17:43:11.676Z,1010.98
2023-08-15T17:44:11.750Z,1011.03
2023-08-15T17:45:11.839Z,1011.06
2023-08-15T17:46:12.735Z,1011.10
2023-08-15T17:47:12.051Z,1011.12
2023-08-15T17:48:12.124Z,1011.17
2023-08-15T17:49:12.206Z,1011.17
2023-08-15T17:50:12.377Z,1011.13
2023-08-15T17:51:12.399Z,1011.20
2023-08-15T17:52:12.479Z,1011.21
2023-08-15T17:53:12.608Z,1011.15
2023-08-15T17:54:12.634Z,1011.15
2023-08-15T17:55:12.735Z,1011.15
2023-08-15T17:56:12.809Z,1011.15
2023-08-15T17:57:12.940Z,1011.14
2023-08-15T17:58:12.987Z,1011.13
2023-08-15T17:59:13.111Z,1011.13
2023-08-15T18:00:13.973Z,1011.15
2023-08-15T18:01:13.247Z,1011.15
2023-08-15T18:02:13.345Z,1011.21
2023-08-15T18:03:13.526Z,1011.20
2023-08-15T18:04:13.534Z,1011.14
2023-08-15T18:05:13.535Z,1011.22
2023-08-15T18:06:13.652Z,1011.22
2023-08-15T18:07:13.743Z,1011.22
2023-08-15T18:08:13.825Z,1011.22
2023-08-15T18:09:13.919Z,1011.25
2023-08-15T18:10:14.057Z,1011.27
2023-08-15T18:11:14.116Z,1011.29
2023-08-15T18:12:14.134Z,1011.28
2023-08-15T18:13:14.202Z,1011.26
2023-08-15T18:14:14.290Z,1011.28
2023-08-15T18:15:14.397Z,1011.34
2023-08-15T18:16:14.469Z,1011.33
2023-08-15T18:17:15.340Z,1011.34
2023-08-15T18:18:14.710Z,1011.33
2023-08-15T18:19:14.748Z,1011.34
2023-08-15T18:20:14.779Z,1011.36
2023-08-15T18:21:14.846Z,1011.38
2023-08-15T18:22:15.066Z,1011.43
2023-08-15T18:23:14.999Z,1011.43
2023-08-15T18:24:15.074Z,1011.41
2023-08-15T18:25:15.155Z,1011.44
2023-08-15T18:26:15.257Z,1011.44
2023-08-15T18:27:15.316Z,1011.49
2023-08-15T18:28:15.379Z,1011.50
2023-08-15T18:29:15.481Z,1011.51
2023-08-15T18:30:15.514Z,1011.51
2023-08-15T18:31:15.642Z,1011.51
2023-08-15T18:32:15.689Z,1011.52
2023-08-15T18:33:15.852Z,1011.54
2023-08-15T18:34:15.867Z,1011.54
2023-08-15T18:35:15.967Z,1011.62
2023-08-15T18:36:16.035Z,1011.61
2023-08-15T18:37:16.094Z,1011.68
2023-08-15T18:38:16.166Z,1011.65
2023-08-15T18:39:16.274Z,1011.65
2023-08-15T18:40:16.329Z,1011.67
2023-08-15T18:41:16.442Z,1011.68
2023-08-15T18:42:16.516Z,1011.73
2023-08-15T18:43:17.510Z,1011.81
2023-08-15T18:44:16.717Z,1011.78
2023-08-15T18:45:16.800Z,1011.84
2023-08-15T18:46:16.925Z,1011.84
2023-08-15T18:47:17.011Z,1011.83
2023-08-15T18:48:17.148Z,1011.80
2023-08-15T18:49:17.163Z,1011.80
2023-08-15T18:50:17.225Z,1011.82
2023-08-15T18:51:17.311Z,1011.81
2023-08-15T18:52:17.414Z,1011.87
2023-08-15T18:53:17.445Z,1011.85
2023-08-15T18:54:17.562Z,1011.89
2023-08-15T18:55:17.689Z,1011.90
2023-08-15T18:56:17.701Z,1011.90
2023-08-15T18:57:17.807Z,1011.91
2023-08-15T18:58:17.874Z,1011.89
2023-08-15T18:59:17.993Z,1011.96
